Time;durP1;ratioP1;P1;durP2;ratioP2;P2;SDS_P1;SDS_P2;PMS_P1;PMS_P2;Temp;Humidity;BMP_temperature;BMP_pressure;BME280_temperature;BME280_humidity;BME280_pressure;Samples;Min_cycle;Max_cycle;Signal;HPM_P1;HPM_P2
2021/12/30 00:00:38;;;;;;;12.48;8.20;;;3.00;84.60;;;1.59;80.21;95892.78;3975596;34;20059;-83
2021/12/30 00:03:05;;;;;;;13.35;8.77;;;2.90;84.60;;;1.60;79.93;95890.94;4018989;34;20312;-83
2021/12/30 00:05:33;;;;;;;13.75;7.90;;;2.90;84.60;;;1.59;80.44;95889.28;3997651;34;20008;-83
2021/12/30 00:07:59;;;;;;;13.07;8.23;;;2.90;84.60;;;1.60;80.31;95890.94;4018637;34;20613;-83
2021/12/30 00:10:25;;;;;;;11.02;8.25;;;2.90;84.60;;;1.58;80.73;95899.22;3996215;34;20080;-82
2021/12/30 00:12:53;;;;;;;14.95;9.68;;;2.90;84.60;;;1.60;80.09;95907.13;3996636;34;20647;-82
2021/12/30 00:15:19;;;;;;;13.48;8.70;;;2.90;84.60;;;1.59;80.56;95908.16;3995231;34;20295;-83
2021/12/30 00:17:46;;;;;;;13.07;8.65;;;2.90;84.70;;;1.60;80.32;95917.91;3995859;34;20299;-83
2021/12/30 00:20:12;;;;;;;14.13;9.02;;;2.90;84.60;;;1.60;80.31;95915.22;3995707;34;20322;-83
2021/12/30 00:22:41;;;;;;;14.00;8.35;;;2.90;84.60;;;1.59;80.16;95917.06;3998245;34;20451;-83
2021/12/30 00:25:08;;;;;;;12.38;7.88;;;2.90;84.50;;;1.59;80.23;95916.25;4020358;34;20215;-83
2021/12/30 00:27:35;;;;;;;14.63;8.75;;;2.90;84.60;;;1.61;80.51;95920.38;3998311;34;20302;-83
2021/12/30 00:30:03;;;;;;;12.98;8.18;;;2.90;84.60;;;1.59;80.20;95921.66;3977392;34;20009;-83
2021/12/30 00:32:29;;;;;;;12.23;7.88;;;2.90;84.60;;;1.60;80.23;95923.31;3997975;34;20366;-83
2021/12/30 00:34:55;;;;;;;13.15;8.00;;;2.90;84.60;;;1.61;80.31;95930.34;4000042;34;20391;-83
2021/12/30 00:37:22;;;;;;;10.23;6.93;;;2.90;84.60;;;1.60;80.54;95926.00;3996624;34;20307;-83
2021/12/30 00:39:48;;;;;;;11.00;7.57;;;2.90;84.60;;;1.61;80.33;95931.16;4016972;34;19993;-83
2021/12/30 00:42:14;;;;;;;10.93;7.97;;;2.90;84.60;;;1.61;80.65;95935.75;4015509;34;20052;-83
2021/12/30 00:44:41;;;;;;;10.18;7.32;;;2.90;84.70;;;1.60;80.38;95934.09;3993351;34;20290;-83
2021/12/30 00:47:07;;;;;;;13.02;7.85;;;2.90;84.70;;;1.59;80.33;95943.25;3974189;34;20294;-83
2021/12/30 00:49:33;;;;;;;15.02;8.85;;;2.90;84.60;;;1.60;80.47;95945.69;4018390;34;20012;-84
2021/12/30 00:52:00;;;;;;;11.95;7.85;;;2.90;84.70;;;1.61;80.52;95951.94;3977128;34;20291;-84
2021/12/30 00:54:26;;;;;;;12.15;8.07;;;2.90;84.60;;;1.59;80.67;95959.41;4019493;34;19984;-84
2021/12/30 00:56:52;;;;;;;11.85;7.65;;;2.90;84.70;;;1.58;80.59;95953.19;3998323;34;20001;-83
2021/12/30 00:59:19;;;;;;;11.48;7.32;;;2.90;84.70;;;1.61;80.21;95960.84;4018824;34;20310;-84
2021/12/30 01:01:45;;;;;;;11.77;7.80;;;2.90;84.70;;;1.60;80.16;95961.09;4018979;34;20372;-84
2021/12/30 01:04:11;;;;;;;11.18;7.43;;;2.90;84.70;;;1.61;80.09;95960.03;3996838;34;20005;-84
2021/12/30 01:06:38;;;;;;;9.65;7.15;;;2.90;84.60;;;1.60;80.38;95955.69;4018620;34;20503;-84
2021/12/30 01:09:04;;;;;;;12.02;7.97;;;2.90;84.70;;;1.60;80.46;95959.19;3994259;34;20319;-84
2021/12/30 01:11:31;;;;;;;11.40;7.28;;;2.90;84.60;;;1.61;80.49;95960.03;4015089;34;20538;-84
2021/12/30 01:14:03;;;;;;;11.55;7.38;;;2.90;84.70;;;1.60;80.19;95956.50;3991712;34;20393;-85
2021/12/30 01:16:31;;;;;;;10.40;7.10;;;2.90;84.70;;;1.60;80.65;95961.09;3973540;34;20038;-84
2021/12/30 01:19:14;;;;;;;10.93;7.00;;;2.90;84.70;;;1.60;80.43;95958.38;3994768;34;20321;-85
2021/12/30 01:21:42;;;;;;;11.50;7.57;;;2.90;84.70;;;1.61;80.58;95963.53;4015428;34;20302;-85
2021/12/30 01:24:09;;;;;;;11.20;7.63;;;2.90;84.60;;;1.59;80.44;95962.94;3993449;34;20312;-85
2021/12/30 01:26:35;;;;;;;11.52;8.15;;;2.90;84.70;;;1.60;80.28;95963.78;3993191;34;20017;-85
2021/12/30 01:29:02;;;;;;;11.38;7.55;;;2.90;84.60;;;1.61;80.04;95968.13;3971094;34;20307;-84
2021/12/30 01:31:28;;;;;;;12.25;7.50;;;2.90;84.70;;;1.61;80.44;95974.34;3993079;34;20013;-85
2021/12/30 01:33:55;;;;;;;12.15;7.50;;;2.90;84.70;;;1.61;80.53;95973.53;3972127;34;20313;-85
2021/12/30 01:36:21;;;;;;;10.52;6.80;;;2.90;84.70;;;1.59;80.07;95981.81;4014081;34;20245;-84
2021/12/30 01:38:48;;;;;;;9.63;6.70;;;2.90;84.60;;;1.60;80.46;95971.88;3972877;34;20302;-84
2021/12/30 01:41:15;;;;;;;11.95;7.78;;;2.90;84.60;;;1.59;80.08;95970.22;3972428;34;20007;-85
2021/12/30 01:43:41;;;;;;;9.40;6.32;;;2.90;84.60;;;1.61;80.08;95978.91;3992785;34;20013;-85
2021/12/30 01:46:09;;;;;;;12.20;7.85;;;2.90;84.60;;;1.61;80.50;95976.22;4014180;34;20009;-84
2021/12/30 01:48:35;;;;;;;9.10;6.72;;;2.90;84.60;;;1.60;80.42;95971.88;4014856;34;20339;-84
2021/12/30 01:51:02;;;;;;;9.83;6.63;;;2.90;84.60;;;1.61;80.49;95984.31;3993934;34;20307;-85
2021/12/30 01:53:29;;;;;;;8.48;6.00;;;2.90;84.60;;;1.59;80.95;95970.22;4038507;34;20347;-85
2021/12/30 01:55:55;;;;;;;11.27;7.43;;;2.90;84.60;;;1.60;80.40;95974.56;4017543;34;20040;-84
2021/12/30 01:58:21;;;;;;;11.98;7.10;;;3.00;84.60;;;1.61;80.29;95984.31;4012890;34;20009;-85
2021/12/30 02:00:49;;;;;;;12.25;7.55;;;3.00;84.60;;;1.60;80.39;95975.38;3953239;34;20714;-84
2021/12/30 02:03:16;;;;;;;10.32;6.05;;;3.00;84.60;;;1.61;80.28;95973.53;4008919;34;20313;-84
2021/12/30 02:05:42;;;;;;;8.85;6.50;;;2.90;84.60;;;1.60;80.29;95980.78;3991695;34;20017;-85
2021/12/30 02:08:13;;;;;;;10.80;6.38;;;2.90;84.60;;;1.61;80.26;95989.72;3969634;34;20373;-85
2021/12/30 02:10:41;;;;;;;11.68;7.00;;;2.90;84.60;;;1.61;80.66;95984.31;3987131;34;20717;-84
2021/12/30 02:13:09;;;;;;;9.60;6.22;;;2.90;84.60;;;1.59;80.42;95981.00;4045621;34;19998;-85
2021/12/30 02:15:35;;;;;;;9.57;6.38;;;2.90;84.60;;;1.60;80.27;95978.06;3969724;34;20009;-85
2021/12/30 02:18:02;;;;;;;8.45;5.15;;;2.90;84.60;;;1.60;80.56;95974.56;3980863;34;20361;-85
2021/12/30 02:20:47;;;;;;;9.35;5.95;;;2.90;84.60;;;1.62;80.20;95976.00;3992135;34;20005;-85
2021/12/30 02:23:47;;;;;;;8.23;5.80;;;2.90;84.60;;;1.59;80.08;95975.63;3971539;34;20020;-84
2021/12/30 02:26:17;;;;;;;9.90;6.28;;;3.00;84.60;;;1.61;80.37;95973.53;3954459;34;20013;-85
2021/12/30 02:28:43;;;;;;;8.52;6.00;;;2.90;84.60;;;1.61;80.41;95974.34;3971390;34;20359;-84
2021/12/30 02:31:25;;;;;;;8.70;5.68;;;3.00;84.60;;;1.62;80.23;95972.44;3991942;34;20298;-84
2021/12/30 02:33:52;;;;;;;9.30;5.90;;;3.00;84.60;;;1.61;80.28;95989.72;4012556;34;20298;-85
2021/12/30 02:36:32;;;;;;;8.35;5.55;;;2.90;84.60;;;1.61;80.58;95984.31;4012426;34;20005;-85
2021/12/30 02:38:59;;;;;;;8.30;5.50;;;2.90;84.60;;;1.60;80.55;95983.47;3992696;34;20340;-84
2021/12/30 02:41:27;;;;;;;10.15;6.47;;;2.90;84.70;;;1.61;80.30;95990.53;3991452;34;20314;-84
2021/12/30 02:43:54;;;;;;;7.82;5.70;;;2.90;84.60;;;1.61;80.36;95984.31;3989791;34;20352;-84
2021/12/30 02:46:28;;;;;;;10.55;5.97;;;2.90;84.60;;;1.62;80.36;95991.34;3988452;34;19996;-85
2021/12/30 02:48:58;;;;;;;9.80;6.30;;;2.90;84.70;;;1.61;80.31;95995.13;3989432;34;20297;-84
2021/12/30 02:51:25;;;;;;;9.85;6.90;;;2.90;84.60;;;1.61;80.27;95992.41;4010498;34;20330;-84
2021/12/30 02:53:52;;;;;;;8.05;5.88;;;3.00;84.70;;;1.60;80.63;95993.47;3967938;34;20021;-85
2021/12/30 02:56:19;;;;;;;8.43;5.57;;;3.00;84.70;;;1.61;80.57;96000.50;3946588;34;20300;-84
2021/12/30 02:58:45;;;;;;;9.40;5.82;;;2.90;84.70;;;1.60;80.50;95996.16;3988743;34;19993;-85
2021/12/30 03:01:24;;;;;;;8.82;5.57;;;3.00;84.80;;;1.60;80.21;95998.84;3963986;34;20005;-84
2021/12/30 03:03:50;;;;;;;8.23;5.60;;;3.00;84.70;;;1.62;80.34;96007.53;4008917;34;20316;-84
2021/12/30 03:06:17;;;;;;;7.90;5.25;;;2.90;84.70;;;1.60;80.49;95999.66;3984376;34;20282;-84
2021/12/30 03:08:45;;;;;;;8.38;5.55;;;2.90;84.70;;;1.61;80.86;96005.91;3987249;34;20084;-84
2021/12/30 03:11:12;;;;;;;7.68;5.57;;;2.90;84.80;;;1.61;80.34;96009.41;4038218;34;20004;-84
2021/12/30 03:13:41;;;;;;;9.80;5.65;;;3.00;84.70;;;1.61;80.61;96005.91;4017214;34;20272;-84
2021/12/30 03:16:13;;;;;;;9.38;6.03;;;3.00;84.70;;;1.61;80.34;96012.13;4037944;34;20200;-85
2021/12/30 03:18:41;;;;;;;9.70;5.97;;;3.00;84.60;;;1.62;80.63;96012.94;4040750;34;20001;-84
2021/12/30 03:21:09;;;;;;;7.95;4.93;;;3.00;84.70;;;1.61;80.35;96005.91;4020123;34;20339;-84
2021/12/30 03:23:35;;;;;;;9.27;5.93;;;3.00;84.70;;;1.60;80.38;96015.03;4042144;34;20047;-85
2021/12/30 03:26:03;;;;;;;8.73;6.00;;;2.90;84.70;;;1.61;80.48;96016.69;4062861;34;20457;-84
2021/12/30 03:28:29;;;;;;;9.60;5.97;;;3.00;84.70;;;1.62;80.21;96019.16;4020118;34;20071;-85
2021/12/30 03:30:59;;;;;;;9.07;5.75;;;3.00;84.70;;;1.62;80.21;96018.31;4042160;34;20009;-84
2021/12/30 03:33:29;;;;;;;8.13;5.03;;;2.90;84.70;;;1.63;80.39;96019.97;4019178;34;20035;-84
2021/12/30 03:36:00;;;;;;;7.90;4.95;;;2.90;84.70;;;1.62;80.30;96023.72;3997256;34;20298;-85
2021/12/30 03:38:34;;;;;;;7.65;5.55;;;2.90;84.70;;;1.62;80.50;96029.13;3977888;34;20301;-84
2021/12/30 03:41:00;;;;;;;10.35;5.75;;;2.90;84.70;;;1.62;80.48;96031.81;4040315;34;20293;-85
2021/12/30 03:43:27;;;;;;;9.02;5.35;;;3.00;84.70;;;1.61;80.40;96038.28;4062874;34;20397;-85
2021/12/30 03:45:53;;;;;;;7.75;5.30;;;3.00;84.80;;;1.60;80.58;96042.84;4039851;34;20008;-85
2021/12/30 03:48:20;;;;;;;8.25;5.28;;;2.90;84.70;;;1.62;80.69;96050.69;4040522;34;20293;-85
2021/12/30 03:50:48;;;;;;;8.05;5.07;;;3.00;84.70;;;1.61;80.43;96054.47;4018574;34;20324;-84
2021/12/30 03:53:15;;;;;;;7.78;5.43;;;3.00;84.70;;;1.62;80.56;96064.19;4040883;34;20032;-85
2021/12/30 03:55:42;;;;;;;8.15;5.30;;;2.90;84.80;;;1.61;80.62;96059.88;3992311;34;20697;-84
2021/12/30 03:58:09;;;;;;;10.35;5.80;;;3.00;84.70;;;1.60;80.31;96058.22;3970807;34;20292;-85
2021/12/30 04:00:37;;;;;;;7.22;4.80;;;3.00;84.70;;;1.62;80.58;96061.50;3989740;34;19997;-84
2021/12/30 04:03:04;;;;;;;6.60;4.60;;;3.00;84.80;;;1.61;80.43;96070.66;4012242;34;20204;-84
2021/12/30 04:05:30;;;;;;;8.07;4.80;;;2.90;84.80;;;1.62;80.68;96081.22;3991897;34;20265;-85
2021/12/30 04:07:56;;;;;;;7.88;5.00;;;3.00;84.70;;;1.61;80.41;96082.25;3993095;34;20216;-85
2021/12/30 04:10:23;;;;;;;7.60;4.55;;;3.00;84.70;;;1.62;80.15;96088.47;3971870;34;20301;-84
2021/12/30 04:12:51;;;;;;;7.78;5.18;;;3.00;84.70;;;1.62;80.65;96091.16;4013703;34;20284;-85
2021/12/30 04:15:18;;;;;;;8.20;5.28;;;3.00;84.70;;;1.62;80.51;96104.66;3971552;34;20432;-84
2021/12/30 04:17:45;;;;;;;7.65;5.38;;;3.00;84.70;;;1.61;80.43;96100.34;3948619;34;19993;-84
2021/12/30 04:20:13;;;;;;;8.40;4.88;;;3.00;84.70;;;1.61;80.51;96103.03;3970841;34;20013;-84
2021/12/30 04:22:39;;;;;;;7.43;4.85;;;3.00;84.70;;;1.62;80.51;96110.06;3971812;34;20029;-85
2021/12/30 04:25:10;;;;;;;8.00;5.30;;;3.00;84.70;;;1.63;80.25;96117.13;3971312;34;20623;-85
2021/12/30 04:27:37;;;;;;;7.18;5.13;;;3.00;84.70;;;1.63;80.27;96117.13;3993089;34;20375;-84
2021/12/30 04:30:05;;;;;;;9.30;5.43;;;3.00;84.70;;;1.62;80.36;96115.47;3993237;34;20038;-85
2021/12/30 04:32:31;;;;;;;6.85;4.53;;;3.00;84.70;;;1.62;80.61;96120.84;3993216;34;20089;-84
2021/12/30 04:34:58;;;;;;;7.95;5.22;;;3.00;84.80;;;1.62;80.28;96124.41;3992175;34;20560;-85
2021/12/30 04:37:24;;;;;;;7.32;4.90;;;3.00;84.70;;;1.62;80.64;96131.66;3992795;34;20028;-85
2021/12/30 04:39:50;;;;;;;7.72;5.55;;;3.00;84.70;;;1.61;80.53;96138.94;3972595;34;19993;-85
2021/12/30 04:42:17;;;;;;;7.38;5.07;;;3.00;84.80;;;1.62;80.65;96142.44;3993473;34;20304;-84
2021/12/30 04:44:43;;;;;;;7.72;4.88;;;3.00;84.80;;;1.61;80.61;96151.59;3970558;34;20292;-85
2021/12/30 04:47:11;;;;;;;6.43;4.88;;;3.00;84.70;;;1.62;80.36;96154.06;3993198;34;20334;-85
2021/12/30 04:49:37;;;;;;;8.43;5.40;;;3.00;84.70;;;1.63;80.59;96163.00;3973926;34;20140;-84
2021/12/30 04:52:04;;;;;;;7.03;4.47;;;3.00;84.70;;;1.62;80.50;96156.78;3973363;34;20009;-84
2021/12/30 04:54:30;;;;;;;8.05;5.20;;;3.00;84.60;;;1.63;80.43;96160.28;3996227;34;20627;-85
2021/12/30 04:56:57;;;;;;;8.48;5.13;;;3.00;84.70;;;1.61;80.73;96159.69;3953137;34;20683;-84
2021/12/30 04:59:23;;;;;;;7.28;5.05;;;3.00;84.70;;;1.62;80.54;96174.81;3995887;34;20117;-84
2021/12/30 05:01:49;;;;;;;8.80;5.25;;;3.00;84.60;;;1.63;80.57;96176.47;3995700;34;20019;-85
2021/12/30 05:04:16;;;;;;;7.65;5.20;;;3.00;84.60;;;1.62;80.71;96174.81;3973799;34;20286;-84
2021/12/30 05:06:43;;;;;;;7.93;4.80;;;3.00;84.70;;;1.62;80.13;96185.63;3993182;34;20374;-84
2021/12/30 05:09:09;;;;;;;8.35;5.60;;;3.00;84.70;;;1.63;80.74;96203.47;3970874;34;20328;-85
2021/12/30 05:11:40;;;;;;;8.10;5.15;;;3.00;84.60;;;1.62;80.24;96201.81;3970467;34;20881;-85
2021/12/30 05:14:09;;;;;;;7.75;4.75;;;3.00;84.70;;;1.62;80.29;96199.09;4014594;34;20583;-85
2021/12/30 05:16:36;;;;;;;6.88;4.80;;;3.00;84.80;;;1.62;80.17;96201.81;3992615;34;20020;-84
2021/12/30 05:19:03;;;;;;;8.88;4.82;;;3.00;84.60;;;1.63;80.58;96203.47;4014376;34;20325;-83
2021/12/30 05:21:29;;;;;;;6.75;4.35;;;3.00;84.60;;;1.64;80.64;96197.03;3970314;34;20024;-84
2021/12/30 05:23:56;;;;;;;7.57;4.85;;;3.00;84.70;;;1.63;80.58;96200.75;3971170;34;20737;-84
2021/12/30 05:26:27;;;;;;;9.10;5.55;;;3.00;85.50;;;1.63;80.30;96209.69;3968851;34;20395;-84
2021/12/30 05:28:55;;;;;;;7.18;4.95;;;3.00;84.70;;;1.63;80.10;96212.41;3991942;34;20001;-85
2021/12/30 05:31:21;;;;;;;7.95;5.72;;;3.00;84.60;;;1.63;80.63;96211.56;3991637;34;20602;-85
2021/12/30 05:33:48;;;;;;;6.53;4.70;;;3.00;84.60;;;1.62;80.14;96216.13;3993235;34;20322;-84
2021/12/30 05:36:14;;;;;;;8.88;6.03;;;3.00;84.60;;;1.62;80.56;96218.84;3969561;34;20012;-84
2021/12/30 05:38:41;;;;;;;8.35;5.57;;;3.00;84.60;;;1.63;80.59;96219.66;3991333;34;20285;-84
2021/12/30 05:41:07;;;;;;;7.85;4.97;;;3.00;84.70;;;1.63;80.33;96225.03;3969729;34;20012;-84
2021/12/30 05:43:33;;;;;;;6.72;4.95;;;3.00;84.70;;;1.63;80.39;96230.44;4010748;34;19997;-85
2021/12/30 05:46:06;;;;;;;9.02;5.70;;;3.00;84.70;;;1.63;80.51;96230.44;3989084;34;20382;-84
2021/12/30 05:48:32;;;;;;;7.20;4.55;;;3.00;84.70;;;1.63;80.54;96242.09;3962926;34;20043;-85
2021/12/30 05:51:01;;;;;;;8.93;4.65;;;3.00;84.60;;;1.61;80.27;96252.25;3983373;34;20289;-83
2021/12/30 05:53:29;;;;;;;9.50;5.57;;;3.00;84.60;;;1.64;80.30;96242.91;3961338;34;20331;-84
2021/12/30 05:55:55;;;;;;;7.70;5.07;;;3.00;84.70;;;1.64;80.57;96256.38;3956618;34;20005;-84
2021/12/30 05:58:22;;;;;;;8.40;5.47;;;3.00;84.70;;;1.63;80.71;96252.88;3956220;34;20367;-84
2021/12/30 06:00:49;;;;;;;7.90;5.03;;;3.00;84.80;;;1.63;80.31;96265.53;3956730;34;20517;-84
2021/12/30 06:03:19;;;;;;;7.50;4.90;;;3.00;84.70;;;1.64;80.51;96264.47;3958368;34;20325;-84
2021/12/30 06:05:47;;;;;;;8.25;4.97;;;3.00;85.60;;;1.63;80.53;96279.00;4001170;34;20315;-84
2021/12/30 06:08:14;;;;;;;7.25;5.05;;;3.00;84.70;;;1.63;80.34;96282.56;3960371;34;20285;-83
2021/12/30 06:10:41;;;;;;;8.05;5.43;;;3.00;84.70;;;1.65;80.43;96285.03;3959922;34;20012;-83
2021/12/30 06:13:08;;;;;;;8.00;5.13;;;3.00;84.60;;;1.64;80.30;96291.47;4001778;34;20278;-84
2021/12/30 06:15:34;;;;;;;7.55;5.10;;;3.00;84.60;;;1.64;80.27;96302.25;3980055;34;20171;-84
2021/12/30 06:18:00;;;;;;;6.82;4.80;;;3.00;84.60;;;1.64;80.60;96302.25;4022580;34;20178;-84
2021/12/30 06:20:28;;;;;;;7.80;4.93;;;3.00;84.70;;;1.63;80.44;96306.00;3959074;34;20302;-84
2021/12/30 06:22:54;;;;;;;7.50;4.82;;;3.00;84.70;;;1.62;80.40;96309.72;3959746;34;20544;-84
2021/12/30 06:25:20;;;;;;;7.88;4.65;;;3.00;84.70;;;1.63;80.48;96327.59;3979962;34;20068;-85
2021/12/30 06:27:46;;;;;;;7.45;4.60;;;3.00;84.70;;;1.64;80.22;96324.69;4001975;34;20387;-83
2021/12/30 06:30:13;;;;;;;8.50;5.68;;;3.00;84.70;;;1.64;80.16;96323.84;3959106;34;20300;-83
2021/12/30 06:32:39;;;;;;;7.75;4.85;;;3.00;84.60;;;1.64;80.27;96329.25;4001499;34;20080;-85
2021/12/30 06:35:08;;;;;;;8.15;5.25;;;3.00;84.70;;;1.64;79.96;96343.59;3982294;34;20355;-84
2021/12/30 06:37:38;;;;;;;8.98;5.45;;;3.00;84.70;;;1.65;80.36;96347.09;3995874;34;20005;-85
2021/12/30 06:40:07;;;;;;;8.82;5.10;;;3.00;84.70;;;1.65;80.53;96349.78;4008772;34;20024;-84
2021/12/30 06:42:33;;;;;;;9.90;6.13;;;3.00;84.60;;;1.64;80.34;96350.84;4035449;34;20292;-84
2021/12/30 06:44:59;;;;;;;9.77;5.78;;;3.00;84.60;;;1.64;80.70;96350.84;3961579;34;20024;-84
2021/12/30 06:47:26;;;;;;;8.95;5.65;;;3.00;84.60;;;1.65;80.33;96353.34;3941720;34;20322;-84
2021/12/30 06:49:58;;;;;;;9.00;5.72;;;3.00;84.60;;;1.65;79.92;96360.59;3983902;34;19992;-84
2021/12/30 06:52:24;;;;;;;9.27;5.72;;;3.00;84.60;;;1.64;80.46;96367.03;3971902;34;20162;-83
2021/12/30 06:54:51;;;;;;;8.52;5.55;;;3.00;84.60;;;1.64;80.55;96367.88;3967153;34;20296;-83
2021/12/30 06:57:17;;;;;;;8.82;5.72;;;3.00;84.70;;;1.65;80.00;96369.53;3983197;34;20291;-83
2021/12/30 06:59:43;;;;;;;9.65;6.07;;;3.00;84.60;;;1.63;80.35;96371.59;3988799;34;20216;-83
2021/12/30 07:02:09;;;;;;;9.60;5.88;;;3.00;84.60;;;1.63;80.07;96376.16;3967066;34;20557;-83
2021/12/30 07:04:36;;;;;;;9.88;5.63;;;3.00;84.60;;;1.63;80.52;96379.72;3966706;34;20301;-83
2021/12/30 07:07:02;;;;;;;10.18;6.25;;;3.00;84.60;;;1.64;80.12;96383.22;3966809;34;20084;-83
2021/12/30 07:09:29;;;;;;;9.43;6.20;;;3.00;84.50;;;1.64;80.12;96388.63;3967059;34;20302;-83
2021/12/30 07:11:55;;;;;;;8.98;5.80;;;3.00;84.60;;;1.66;80.04;96400.03;3971036;34;19989;-83
2021/12/30 07:14:22;;;;;;;10.52;6.03;;;3.00;84.60;;;1.64;80.29;96392.16;4013116;34;20011;-83
2021/12/30 07:16:49;;;;;;;9.20;5.78;;;3.00;84.60;;;1.64;80.42;96402.09;4011044;34;20003;-83
2021/12/30 07:19:15;;;;;;;10.85;5.95;;;3.00;84.60;;;1.64;80.33;96400.25;3945331;34;20291;-83
2021/12/30 07:21:42;;;;;;;10.10;6.13;;;3.00;84.60;;;1.65;80.22;96401.06;3987410;34;20376;-83
2021/12/30 07:24:08;;;;;;;10.85;6.38;;;3.00;84.60;;;1.65;80.32;96407.31;3966046;34;20076;-83
2021/12/30 07:26:35;;;;;;;8.68;5.93;;;3.00;84.50;;;1.65;80.52;96414.56;3987156;34;20555;-83
2021/12/30 07:29:03;;;;;;;9.95;5.80;;;3.00;84.60;;;1.65;80.36;96420.81;3966038;34;20307;-82
2021/12/30 07:31:29;;;;;;;8.57;5.95;;;3.00;84.60;;;1.65;80.07;96417.25;3987764;34;20363;-83
2021/12/30 07:33:55;;;;;;;9.77;6.32;;;3.00;84.60;;;1.65;80.48;96417.25;3967365;34;20024;-83
2021/12/30 07:36:22;;;;;;;9.43;6.03;;;3.00;84.60;;;1.65;80.32;96417.25;4013091;34;20630;-83
2021/12/30 07:38:48;;;;;;;10.55;6.35;;;3.00;84.50;;;1.66;80.53;96424.31;3971172;34;20284;-83
2021/12/30 07:41:15;;;;;;;10.45;6.50;;;3.00;84.60;;;1.65;80.48;96428.06;4013875;34;20308;-83
2021/12/30 07:43:42;;;;;;;9.98;5.63;;;3.00;84.60;;;1.66;80.18;96424.31;3995153;34;20400;-83
2021/12/30 07:46:09;;;;;;;11.45;6.20;;;3.00;84.50;;;1.65;80.27;96425.34;3994393;34;20363;-83
2021/12/30 07:48:37;;;;;;;9.18;6.57;;;3.00;84.50;;;1.64;80.35;96431.78;3995034;34;20390;-83
2021/12/30 07:51:03;;;;;;;12.83;6.73;;;3.00;84.50;;;1.66;80.43;96443.22;3994864;34;20024;-83
2021/12/30 07:53:30;;;;;;;11.80;6.60;;;3.00;84.50;;;1.66;80.15;96435.13;3995021;34;20321;-83
2021/12/30 07:55:56;;;;;;;10.77;6.88;;;3.00;84.50;;;1.66;80.46;96435.97;3997788;34;20004;-82
2021/12/30 07:58:23;;;;;;;10.73;6.50;;;3.00;84.50;;;1.66;80.36;96429.72;4019968;34;20317;-83
2021/12/30 08:00:49;;;;;;;12.02;6.85;;;3.00;84.60;;;1.66;80.05;96427.03;3998889;34;20272;-83
2021/12/30 08:03:15;;;;;;;11.65;6.75;;;3.00;84.50;;;1.68;80.23;96433.03;3999038;34;20387;-83
2021/12/30 08:05:42;;;;;;;11.25;7.20;;;3.00;84.40;;;1.67;80.53;96442.19;3976188;34;20335;-83
2021/12/30 08:08:08;;;;;;;10.70;7.15;;;3.00;84.50;;;1.68;80.04;96443.84;3997490;34;20000;-83
2021/12/30 08:10:35;;;;;;;11.13;6.68;;;3.00;84.50;;;1.66;80.22;96446.75;3996845;34;20291;-83
2021/12/30 08:13:02;;;;;;;11.02;6.40;;;3.00;84.50;;;1.68;80.34;96443.84;3997016;34;20285;-83
2021/12/30 08:15:28;;;;;;;10.73;7.22;;;3.00;84.40;;;1.67;80.24;96453.81;3976139;34;20071;-83
2021/12/30 08:17:55;;;;;;;11.95;6.55;;;3.00;84.40;;;1.68;80.14;96454.63;3997055;34;20282;-83
2021/12/30 08:20:24;;;;;;;12.27;6.68;;;3.00;84.50;;;1.69;80.28;96456.31;4018261;34;20229;-83
2021/12/30 08:22:51;;;;;;;11.27;6.20;;;3.00;84.50;;;1.68;80.38;96460.84;4021287;34;20406;-83
2021/12/30 08:25:18;;;;;;;11.45;6.63;;;3.00;84.40;;;1.69;80.21;96456.31;3977485;34;20012;-83
2021/12/30 08:27:44;;;;;;;10.15;6.45;;;3.00;84.40;;;1.69;80.22;96459.00;3999555;34;20003;-83
2021/12/30 08:30:15;;;;;;;11.52;7.22;;;3.00;84.40;;;1.69;79.98;96457.13;3978912;34;20288;-83
2021/12/30 08:32:41;;;;;;;11.77;7.43;;;3.00;84.30;;;1.69;80.45;96461.69;4000444;34;20009;-85
2021/12/30 08:35:08;;;;;;;10.38;6.35;;;3.00;84.30;;;1.71;79.92;96464.19;4021911;34;20570;-82
2021/12/30 08:37:35;;;;;;;12.65;7.65;;;3.00;84.30;;;1.71;79.95;96475.81;4001537;34;20647;-82
2021/12/30 08:40:04;;;;;;;13.40;7.70;;;3.00;84.30;;;1.71;80.02;96470.41;4023320;34;20000;-83
2021/12/30 08:42:30;;;;;;;13.45;7.50;;;3.10;84.30;;;1.70;80.18;96474.16;4021316;34;20322;-83
2021/12/30 08:44:59;;;;;;;12.50;7.15;;;3.10;84.30;;;1.72;80.04;96477.47;3999318;34;20008;-83
2021/12/30 08:47:26;;;;;;;13.13;7.72;;;3.10;84.30;;;1.72;79.92;96472.09;3978472;34;20036;-82
2021/12/30 08:49:54;;;;;;;11.60;6.95;;;3.10;84.40;;;1.72;80.15;96473.94;3997580;34;20688;-83
2021/12/30 08:52:22;;;;;;;11.52;7.20;;;3.00;84.10;;;1.72;79.91;96472.09;3999064;34;20055;-83
2021/12/30 08:54:49;;;;;;;12.57;8.40;;;3.10;84.30;;;1.72;79.92;96472.09;4010777;34;20033;-83
2021/12/30 08:57:17;;;;;;;11.15;6.95;;;3.10;84.30;;;1.73;80.27;96473.75;4009088;34;20681;-83
2021/12/30 08:59:43;;;;;;;16.40;7.75;;;3.10;84.30;;;1.73;80.10;96478.28;3989441;34;20013;-84
2021/12/30 09:02:10;;;;;;;13.85;7.97;;;3.10;84.20;;;1.72;80.00;96476.63;4029845;34;20298;-83
2021/12/30 09:04:36;;;;;;;13.05;7.65;;;3.10;84.30;;;1.73;79.65;96484.53;4007618;34;20017;-83
2021/12/30 09:07:04;;;;;;;13.90;8.25;;;3.10;84.20;;;1.72;80.00;96485.56;4004331;34;20272;-83
2021/12/30 09:09:31;;;;;;;12.80;7.30;;;3.10;84.30;;;1.73;80.12;96486.41;4029558;34;20285;-83
2021/12/30 09:11:57;;;;;;;11.70;7.70;;;3.10;84.20;;;1.73;80.03;96489.94;4024579;34;20330;-83
2021/12/30 09:14:23;;;;;;;12.18;8.05;;;3.10;84.20;;;1.72;79.90;96487.44;4002909;34;20076;-83
2021/12/30 09:16:50;;;;;;;13.95;8.00;;;3.10;85.10;;;1.71;80.18;96475.81;4003147;34;20345;-83
2021/12/30 09:19:17;;;;;;;11.68;7.82;;;3.10;84.30;;;1.73;80.00;96486.41;4023163;34;20018;-83
2021/12/30 09:21:44;;;;;;;12.50;7.32;;;3.10;84.30;;;1.72;80.31;96484.72;4023506;34;20633;-83
2021/12/30 09:24:10;;;;;;;13.10;7.75;;;3.10;84.20;;;1.71;79.91;96497.41;4002085;34;20295;-83
2021/12/30 09:26:38;;;;;;;13.93;8.00;;;3.10;84.30;;;1.71;80.19;96486.63;4023830;34;20294;-83
2021/12/30 09:29:10;;;;;;;11.85;7.40;;;3.10;84.30;;;1.73;80.20;96489.94;3980741;34;20294;-83
2021/12/30 09:31:54;;;;;;;12.85;7.57;;;3.10;84.30;;;1.73;79.94;96492.63;4004257;34;20040;-83
2021/12/30 09:34:21;;;;;;;13.07;8.15;;;3.10;84.30;;;1.72;79.89;96499.06;4028206;34;20323;-83
2021/12/30 09:36:47;;;;;;;13.32;7.97;;;3.10;84.30;;;1.72;80.10;96499.06;4003910;34;20390;-82
2021/12/30 09:39:14;;;;;;;11.35;7.05;;;3.10;84.30;;;1.73;79.70;96495.34;4004320;34;20331;-83
2021/12/30 09:41:43;;;;;;;12.93;7.65;;;3.10;84.30;;;1.73;79.84;96508.84;4005254;34;20291;-83
2021/12/30 09:44:12;;;;;;;12.10;7.47;;;3.10;84.30;;;1.73;80.26;96510.69;4004330;34;20330;-83
2021/12/30 09:46:39;;;;;;;11.30;7.85;;;3.10;84.10;;;1.74;80.15;96517.75;4006706;34;20357;-83
2021/12/30 09:49:08;;;;;;;13.57;7.88;;;3.10;84.30;;;1.74;79.58;96518.59;3988453;34;20216;-83
2021/12/30 09:51:35;;;;;;;13.35;8.00;;;3.10;84.20;;;1.74;79.59;96525.84;3989128;34;20296;-83
2021/12/30 09:54:03;;;;;;;12.07;8.02;;;3.10;84.20;;;1.74;80.11;96528.53;3963182;34;20376;-83
2021/12/30 09:56:30;;;;;;;13.32;8.82;;;3.10;84.10;;;1.73;79.81;96534.97;3988993;34;20044;-83
2021/12/30 09:58:56;;;;;;;12.80;8.07;;;3.10;84.10;;;1.72;79.99;96534.16;3988592;34;20009;-83
2021/12/30 10:01:24;;;;;;;12.85;8.13;;;3.10;84.10;;;1.73;79.97;96538.53;3967673;34;20308;-83
2021/12/30 10:03:57;;;;;;;12.57;8.05;;;3.10;84.20;;;1.73;80.17;96546.63;3989266;34;20283;-83
2021/12/30 10:06:24;;;;;;;13.15;8.63;;;3.10;84.20;;;1.72;80.04;96536.84;3988899;34;20357;-83
2021/12/30 10:09:09;;;;;;;14.20;8.50;;;3.10;84.30;;;1.73;79.54;96543.91;3963418;34;20417;-83
2021/12/30 10:11:54;;;;;;;14.57;8.13;;;3.10;84.20;;;1.73;79.91;96537.69;3967712;34;20313;-83
2021/12/30 10:14:36;;;;;;;14.05;8.60;;;3.10;84.30;;;1.73;80.07;96546.63;3967183;34;20355;-83
2021/12/30 10:17:24;;;;;;;14.32;8.50;;;3.10;84.20;;;1.73;80.25;96535.81;3991363;34;20064;-83
2021/12/30 10:19:51;;;;;;;13.57;8.45;;;3.10;84.40;;;1.72;80.00;96534.16;3989057;34;20029;-83
2021/12/30 10:22:24;;;;;;;12.05;7.93;;;3.10;84.30;;;1.72;80.19;96539.56;3968382;34;20449;-83
2021/12/30 10:24:51;;;;;;;13.68;8.68;;;3.10;84.30;;;1.73;79.94;96543.06;3970151;34;20005;-83
2021/12/30 10:27:27;;;;;;;13.75;8.75;;;3.10;84.30;;;1.73;80.28;96549.31;3991066;34;20291;-83
2021/12/30 10:29:54;;;;;;;14.02;8.23;;;3.10;84.30;;;1.73;79.98;96546.63;3991595;34;20280;-83
2021/12/30 10:32:29;;;;;;;13.52;9.07;;;3.10;84.30;;;1.72;80.28;96553.06;3970274;34;20321;-83